sensor_id;sensor_type;location;lat;lon;timestamp;temperature;humidity
25923;DHT22;13725;51.170;4.442;2024-01-30T00:01:58;10.70;99.90
25923;DHT22;13725;51.170;4.442;2024-01-30T00:04:24;10.80;99.90
25923;DHT22;13725;51.170;4.442;2024-01-30T00:06:51;10.90;99.90
25923;DHT22;13725;51.170;4.442;2024-01-30T00:09:16;10.90;99.90
25923;DHT22;13725;51.170;4.442;2024-01-30T00:11:42;10.90;99.90
25923;DHT22;13725;51.170;4.442;2024-01-30T00:14:08;11.00;99.90
25923;DHT22;13725;51.170;4.442;2024-01-30T00:16:33;11.00;99.90
25923;DHT22;13725;51.170;4.442;2024-01-30T00:18:59;11.00;99.90
25923;DHT22;13725;51.170;4.442;2024-01-30T00:21:27;11.10;99.90
25923;DHT22;13725;51.170;4.442;2024-01-30T00:23:53;11.10;99.90
25923;DHT22;13725;51.170;4.442;2024-01-30T00:26:19;11.10;99.90
25923;DHT22;13725;51.170;4.442;2024-01-30T00:28:45;11.10;99.90
25923;DHT22;13725;51.170;4.442;2024-01-30T00:31:10;11.10;99.90
25923;DHT22;13725;51.170;4.442;2024-01-30T00:33:40;11.10;99.90
25923;DHT22;13725;51.170;4.442;2024-01-30T00:36:08;11.10;99.90
25923;DHT22;13725;51.170;4.442;2024-01-30T00:38:34;11.10;99.90
25923;DHT22;13725;51.170;4.442;2024-01-30T00:40:59;11.10;99.90
25923;DHT22;13725;51.170;4.442;2024-01-30T00:43:25;11.10;99.90
25923;DHT22;13725;51.170;4.442;2024-01-30T00:45:51;11.10;99.90
25923;DHT22;13725;51.170;4.442;2024-01-30T00:48:20;11.10;99.90
25923;DHT22;13725;51.170;4.442;2024-01-30T00:50:46;11.10;99.90
25923;DHT22;13725;51.170;4.442;2024-01-30T00:53:12;11.20;99.90
25923;DHT22;13725;51.170;4.442;2024-01-30T00:55:38;11.10;99.90
25923;DHT22;13725;51.170;4.442;2024-01-30T00:58:04;11.10;99.90
25923;DHT22;13725;51.170;4.442;2024-01-30T01:00:30;11.10;99.90
25923;DHT22;13725;51.170;4.442;2024-01-30T01:03:00;11.00;99.90
25923;DHT22;13725;51.170;4.442;2024-01-30T01:05:26;11.00;99.90
25923;DHT22;13725;51.170;4.442;2024-01-30T01:07:52;11.00;99.90
25923;DHT22;13725;51.170;4.442;2024-01-30T01:10:18;11.00;99.90
25923;DHT22;13725;51.170;4.442;2024-01-30T01:12:45;11.00;99.90
25923;DHT22;13725;51.170;4.442;2024-01-30T01:15:11;10.90;99.90
25923;DHT22;13725;51.170;4.442;2024-01-30T01:17:37;10.90;99.90
25923;DHT22;13725;51.170;4.442;2024-01-30T01:20:04;10.80;99.90
25923;DHT22;13725;51.170;4.442;2024-01-30T01:22:31;10.80;99.90
25923;DHT22;13725;51.170;4.442;2024-01-30T01:24:56;10.90;99.90
25923;DHT22;13725;51.170;4.442;2024-01-30T01:27:22;10.80;99.90
25923;DHT22;13725;51.170;4.442;2024-01-30T01:29:48;10.80;99.90
25923;DHT22;13725;51.170;4.442;2024-01-30T01:32:14;10.80;99.90
25923;DHT22;13725;51.170;4.442;2024-01-30T01:34:39;10.80;99.90
25923;DHT22;13725;51.170;4.442;2024-01-30T01:37:05;10.80;99.90
25923;DHT22;13725;51.170;4.442;2024-01-30T01:39:31;10.80;99.90
25923;DHT22;13725;51.170;4.442;2024-01-30T01:41:56;10.80;99.90
25923;DHT22;13725;51.170;4.442;2024-01-30T01:44:22;10.80;99.90
25923;DHT22;13725;51.170;4.442;2024-01-30T01:46:48;10.80;99.90
25923;DHT22;13725;51.170;4.442;2024-01-30T01:49:14;10.80;99.90
25923;DHT22;13725;51.170;4.442;2024-01-30T01:51:41;10.80;99.90
25923;DHT22;13725;51.170;4.442;2024-01-30T01:54:08;10.70;99.90
25923;DHT22;13725;51.170;4.442;2024-01-30T01:56:34;10.70;99.90
25923;DHT22;13725;51.170;4.442;2024-01-30T01:59:05;10.60;99.90
25923;DHT22;13725;51.170;4.442;2024-01-30T02:01:38;10.60;99.90
25923;DHT22;13725;51.170;4.442;2024-01-30T02:04:07;10.70;99.90
25923;DHT22;13725;51.170;4.442;2024-01-30T02:06:34;10.70;99.90
25923;DHT22;13725;51.170;4.442;2024-01-30T02:09:00;10.60;99.90
25923;DHT22;13725;51.170;4.442;2024-01-30T02:11:26;10.50;99.90
25923;DHT22;13725;51.170;4.442;2024-01-30T02:13:52;10.60;99.90
25923;DHT22;13725;51.170;4.442;2024-01-30T02:16:18;10.50;99.90
25923;DHT22;13725;51.170;4.442;2024-01-30T02:18:43;10.50;99.90
25923;DHT22;13725;51.170;4.442;2024-01-30T02:21:16;10.50;99.90
25923;DHT22;13725;51.170;4.442;2024-01-30T02:23:44;10.40;99.90
25923;DHT22;13725;51.170;4.442;2024-01-30T02:26:12;10.50;99.90
25923;DHT22;13725;51.170;4.442;2024-01-30T02:28:38;10.40;99.90
25923;DHT22;13725;51.170;4.442;2024-01-30T02:31:04;10.40;99.90
25923;DHT22;13725;51.170;4.442;2024-01-30T02:33:30;10.40;99.90
25923;DHT22;13725;51.170;4.442;2024-01-30T02:35:56;10.40;99.90
25923;DHT22;13725;51.170;4.442;2024-01-30T02:38:22;10.40;99.90
25923;DHT22;13725;51.170;4.442;2024-01-30T02:40:49;10.40;99.90
25923;DHT22;13725;51.170;4.442;2024-01-30T02:43:16;10.40;99.90
25923;DHT22;13725;51.170;4.442;2024-01-30T02:45:42;10.30;99.90
25923;DHT22;13725;51.170;4.442;2024-01-30T02:48:08;10.30;99.90
25923;DHT22;13725;51.170;4.442;2024-01-30T02:50:34;10.40;99.90
25923;DHT22;13725;51.170;4.442;2024-01-30T02:52:59;10.40;99.90
25923;DHT22;13725;51.170;4.442;2024-01-30T02:55:25;10.50;99.90
25923;DHT22;13725;51.170;4.442;2024-01-30T02:57:51;10.50;99.90
25923;DHT22;13725;51.170;4.442;2024-01-30T03:00:17;10.70;99.90
25923;DHT22;13725;51.170;4.442;2024-01-30T03:02:43;10.70;99.90
25923;DHT22;13725;51.170;4.442;2024-01-30T03:05:09;10.80;99.90
25923;DHT22;13725;51.170;4.442;2024-01-30T03:07:34;10.80;99.90
25923;DHT22;13725;51.170;4.442;2024-01-30T03:10:00;10.80;99.90
25923;DHT22;13725;51.170;4.442;2024-01-30T03:12:26;10.90;99.90
25923;DHT22;13725;51.170;4.442;2024-01-30T03:14:52;10.90;99.90
25923;DHT22;13725;51.170;4.442;2024-01-30T03:17:18;11.00;99.90
25923;DHT22;13725;51.170;4.442;2024-01-30T03:19:44;11.00;99.90
25923;DHT22;13725;51.170;4.442;2024-01-30T03:22:10;11.10;99.90
25923;DHT22;13725;51.170;4.442;2024-01-30T03:24:35;11.10;99.90
25923;DHT22;13725;51.170;4.442;2024-01-30T03:27:01;11.20;99.90
25923;DHT22;13725;51.170;4.442;2024-01-30T03:29:27;11.20;99.90
25923;DHT22;13725;51.170;4.442;2024-01-30T03:31:53;11.30;99.90
25923;DHT22;13725;51.170;4.442;2024-01-30T03:34:18;11.30;99.90
25923;DHT22;13725;51.170;4.442;2024-01-30T03:36:44;11.20;99.90
25923;DHT22;13725;51.170;4.442;2024-01-30T03:39:10;11.20;99.90
25923;DHT22;13725;51.170;4.442;2024-01-30T03:41:35;11.20;99.90
25923;DHT22;13725;51.170;4.442;2024-01-30T03:44:02;11.30;99.90
25923;DHT22;13725;51.170;4.442;2024-01-30T03:46:28;11.20;99.90
25923;DHT22;13725;51.170;4.442;2024-01-30T03:48:53;11.20;99.90
25923;DHT22;13725;51.170;4.442;2024-01-30T03:51:19;11.20;99.90
25923;DHT22;13725;51.170;4.442;2024-01-30T03:53:45;11.20;99.90
25923;DHT22;13725;51.170;4.442;2024-01-30T03:56:12;11.30;99.90
25923;DHT22;13725;51.170;4.442;2024-01-30T03:58:39;11.30;99.90
25923;DHT22;13725;51.170;4.442;2024-01-30T04:01:05;11.20;99.90
25923;DHT22;13725;51.170;4.442;2024-01-30T04:03:30;11.20;99.90
25923;DHT22;13725;51.170;4.442;2024-01-30T04:05:56;11.20;99.90
25923;DHT22;13725;51.170;4.442;2024-01-30T04:08:22;11.20;99.90
25923;DHT22;13725;51.170;4.442;2024-01-30T04:10:48;11.20;99.90
25923;DHT22;13725;51.170;4.442;2024-01-30T04:13:14;11.20;99.90
25923;DHT22;13725;51.170;4.442;2024-01-30T04:15:40;11.10;99.90
25923;DHT22;13725;51.170;4.442;2024-01-30T04:18:06;11.10;99.90
25923;DHT22;13725;51.170;4.442;2024-01-30T04:20:32;11.20;99.90
25923;DHT22;13725;51.170;4.442;2024-01-30T04:22:57;11.20;99.90
25923;DHT22;13725;51.170;4.442;2024-01-30T04:25:24;11.20;99.90
25923;DHT22;13725;51.170;4.442;2024-01-30T04:27:50;11.20;99.90
25923;DHT22;13725;51.170;4.442;2024-01-30T04:30:16;11.30;99.90
25923;DHT22;13725;51.170;4.442;2024-01-30T04:32:42;11.40;99.90
25923;DHT22;13725;51.170;4.442;2024-01-30T04:35:08;11.40;99.90
25923;DHT22;13725;51.170;4.442;2024-01-30T04:37:34;11.40;99.90
25923;DHT22;13725;51.170;4.442;2024-01-30T04:40:00;11.40;99.90
25923;DHT22;13725;51.170;4.442;2024-01-30T04:42:26;11.30;99.90
25923;DHT22;13725;51.170;4.442;2024-01-30T04:44:51;11.40;99.90
25923;DHT22;13725;51.170;4.442;2024-01-30T04:47:17;11.40;99.90
25923;DHT22;13725;51.170;4.442;2024-01-30T04:49:43;11.40;99.90
25923;DHT22;13725;51.170;4.442;2024-01-30T04:52:09;11.40;99.90
25923;DHT22;13725;51.170;4.442;2024-01-30T04:54:35;11.30;99.90
25923;DHT22;13725;51.170;4.442;2024-01-30T04:57:01;11.30;99.90
25923;DHT22;13725;51.170;4.442;2024-01-30T04:59:27;11.30;99.90
25923;DHT22;13725;51.170;4.442;2024-01-30T05:01:53;11.30;99.90
25923;DHT22;13725;51.170;4.442;2024-01-30T05:04:19;11.40;99.90
25923;DHT22;13725;51.170;4.442;2024-01-30T05:06:45;11.40;99.90
25923;DHT22;13725;51.170;4.442;2024-01-30T05:09:11;11.40;99.90
25923;DHT22;13725;51.170;4.442;2024-01-30T05:11:41;11.40;99.90
25923;DHT22;13725;51.170;4.442;2024-01-30T05:14:07;11.40;99.90
25923;DHT22;13725;51.170;4.442;2024-01-30T05:16:34;11.40;99.90
25923;DHT22;13725;51.170;4.442;2024-01-30T05:19:00;11.40;99.90
25923;DHT22;13725;51.170;4.442;2024-01-30T05:21:26;11.30;99.90
25923;DHT22;13725;51.170;4.442;2024-01-30T05:23:51;11.30;99.90
25923;DHT22;13725;51.170;4.442;2024-01-30T05:26:17;11.30;99.90
25923;DHT22;13725;51.170;4.442;2024-01-30T05:28:43;11.30;99.90
25923;DHT22;13725;51.170;4.442;2024-01-30T05:31:12;11.40;99.90
25923;DHT22;13725;51.170;4.442;2024-01-30T05:33:37;11.40;99.90
25923;DHT22;13725;51.170;4.442;2024-01-30T05:36:03;11.60;99.90
25923;DHT22;13725;51.170;4.442;2024-01-30T05:38:29;11.40;99.90
25923;DHT22;13725;51.170;4.442;2024-01-30T05:40:56;11.40;99.90
25923;DHT22;13725;51.170;4.442;2024-01-30T05:43:23;11.40;99.90
25923;DHT22;13725;51.170;4.442;2024-01-30T05:45:49;11.40;99.90
25923;DHT22;13725;51.170;4.442;2024-01-30T05:48:15;11.40;99.90
25923;DHT22;13725;51.170;4.442;2024-01-30T05:50:41;11.40;99.90
25923;DHT22;13725;51.170;4.442;2024-01-30T05:53:07;11.50;99.90
25923;DHT22;13725;51.170;4.442;2024-01-30T05:55:33;11.50;99.90
25923;DHT22;13725;51.170;4.442;2024-01-30T05:57:59;11.50;99.90
25923;DHT22;13725;51.170;4.442;2024-01-30T06:00:24;11.50;99.90
25923;DHT22;13725;51.170;4.442;2024-01-30T06:02:50;11.50;99.90
25923;DHT22;13725;51.170;4.442;2024-01-30T06:05:16;11.60;99.90
25923;DHT22;13725;51.170;4.442;2024-01-30T06:07:42;11.60;99.90
25923;DHT22;13725;51.170;4.442;2024-01-30T06:10:09;11.60;99.90
25923;DHT22;13725;51.170;4.442;2024-01-30T06:12:35;11.50;99.90
25923;DHT22;13725;51.170;4.442;2024-01-30T06:15:01;11.50;99.90
25923;DHT22;13725;51.170;4.442;2024-01-30T06:17:28;11.50;99.90
25923;DHT22;13725;51.170;4.442;2024-01-30T06:19:54;11.50;99.90
25923;DHT22;13725;51.170;4.442;2024-01-30T06:22:19;11.60;99.90
25923;DHT22;13725;51.170;4.442;2024-01-30T06:24:45;11.70;99.90
25923;DHT22;13725;51.170;4.442;2024-01-30T06:27:13;11.60;99.90
25923;DHT22;13725;51.170;4.442;2024-01-30T06:29:40;11.50;99.90
25923;DHT22;13725;51.170;4.442;2024-01-30T06:32:06;11.60;99.90
25923;DHT22;13725;51.170;4.442;2024-01-30T06:34:32;11.60;99.90
25923;DHT22;13725;51.170;4.442;2024-01-30T06:36:58;11.50;99.90
25923;DHT22;13725;51.170;4.442;2024-01-30T06:39:23;11.50;99.90
25923;DHT22;13725;51.170;4.442;2024-01-30T06:41:49;11.50;99.90
25923;DHT22;13725;51.170;4.442;2024-01-30T06:44:15;11.60;99.90
25923;DHT22;13725;51.170;4.442;2024-01-30T06:46:48;11.50;99.90
25923;DHT22;13725;51.170;4.442;2024-01-30T06:49:17;11.50;99.90
25923;DHT22;13725;51.170;4.442;2024-01-30T06:51:43;11.60;99.90
25923;DHT22;13725;51.170;4.442;2024-01-30T06:54:09;11.80;99.90
25923;DHT22;13725;51.170;4.442;2024-01-30T06:56:34;11.90;99.90
25923;DHT22;13725;51.170;4.442;2024-01-30T06:59:01;11.90;99.90
25923;DHT22;13725;51.170;4.442;2024-01-30T07:01:30;11.90;99.90
25923;DHT22;13725;51.170;4.442;2024-01-30T07:03:56;11.80;99.90
25923;DHT22;13725;51.170;4.442;2024-01-30T07:06:21;11.80;99.90
25923;DHT22;13725;51.170;4.442;2024-01-30T07:08:49;11.80;99.90
25923;DHT22;13725;51.170;4.442;2024-01-30T07:11:22;11.80;99.90
25923;DHT22;13725;51.170;4.442;2024-01-30T07:13:48;12.00;99.90
25923;DHT22;13725;51.170;4.442;2024-01-30T07:16:15;12.00;99.90
25923;DHT22;13725;51.170;4.442;2024-01-30T07:18:40;12.10;99.90
25923;DHT22;13725;51.170;4.442;2024-01-30T07:21:06;12.10;99.90
25923;DHT22;13725;51.170;4.442;2024-01-30T07:23:32;12.00;99.90
25923;DHT22;13725;51.170;4.442;2024-01-30T07:25:59;12.00;99.90
25923;DHT22;13725;51.170;4.442;2024-01-30T07:28:25;12.00;99.90
25923;DHT22;13725;51.170;4.442;2024-01-30T07:30:51;12.00;99.90
25923;DHT22;13725;51.170;4.442;2024-01-30T07:33:17;12.00;99.90
25923;DHT22;13725;51.170;4.442;2024-01-30T07:35:43;12.00;99.90
25923;DHT22;13725;51.170;4.442;2024-01-30T07:38:08;11.90;99.90
25923;DHT22;13725;51.170;4.442;2024-01-30T07:40:34;12.00;99.90
25923;DHT22;13725;51.170;4.442;2024-01-30T07:43:00;12.10;99.90
25923;DHT22;13725;51.170;4.442;2024-01-30T07:45:26;12.10;99.90
25923;DHT22;13725;51.170;4.442;2024-01-30T07:47:53;12.10;99.90
25923;DHT22;13725;51.170;4.442;2024-01-30T07:50:18;12.00;99.90
25923;DHT22;13725;51.170;4.442;2024-01-30T07:52:44;12.10;99.90
25923;DHT22;13725;51.170;4.442;2024-01-30T07:55:10;12.10;99.90
25923;DHT22;13725;51.170;4.442;2024-01-30T07:57:39;12.10;99.90
25923;DHT22;13725;51.170;4.442;2024-01-30T08:00:05;12.00;99.90
25923;DHT22;13725;51.170;4.442;2024-01-30T08:02:34;11.90;99.90
25923;DHT22;13725;51.170;4.442;2024-01-30T08:04:59;11.90;99.90
25923;DHT22;13725;51.170;4.442;2024-01-30T08:07:25;12.00;99.90
25923;DHT22;13725;51.170;4.442;2024-01-30T08:09:51;12.00;99.90
25923;DHT22;13725;51.170;4.442;2024-01-30T08:12:17;12.00;99.90
25923;DHT22;13725;51.170;4.442;2024-01-30T08:14:42;12.00;99.90
25923;DHT22;13725;51.170;4.442;2024-01-30T08:17:08;12.00;99.90
25923;DHT22;13725;51.170;4.442;2024-01-30T08:19:34;12.00;99.90
25923;DHT22;13725;51.170;4.442;2024-01-30T08:22:00;12.00;99.90
25923;DHT22;13725;51.170;4.442;2024-01-30T08:24:25;12.10;99.90
25923;DHT22;13725;51.170;4.442;2024-01-30T08:26:51;12.20;99.90
25923;DHT22;13725;51.170;4.442;2024-01-30T08:29:17;12.10;99.90
25923;DHT22;13725;51.170;4.442;2024-01-30T08:31:42;12.10;99.90
25923;DHT22;13725;51.170;4.442;2024-01-30T08:34:09;12.10;99.90
25923;DHT22;13725;51.170;4.442;2024-01-30T08:36:36;12.20;99.90
25923;DHT22;13725;51.170;4.442;2024-01-30T08:39:02;12.30;99.90
25923;DHT22;13725;51.170;4.442;2024-01-30T08:41:28;12.50;99.90
25923;DHT22;13725;51.170;4.442;2024-01-30T08:43:54;12.30;99.90
25923;DHT22;13725;51.170;4.442;2024-01-30T08:46:20;12.40;99.90
25923;DHT22;13725;51.170;4.442;2024-01-30T08:48:46;12.50;99.90
25923;DHT22;13725;51.170;4.442;2024-01-30T08:51:13;12.40;99.90
25923;DHT22;13725;51.170;4.442;2024-01-30T08:53:40;12.30;99.90
25923;DHT22;13725;51.170;4.442;2024-01-30T08:56:06;12.30;99.90
25923;DHT22;13725;51.170;4.442;2024-01-30T08:58:32;12.20;99.90
25923;DHT22;13725;51.170;4.442;2024-01-30T09:00:58;12.20;99.90
25923;DHT22;13725;51.170;4.442;2024-01-30T09:03:24;12.30;99.90
25923;DHT22;13725;51.170;4.442;2024-01-30T09:05:50;12.30;99.90
25923;DHT22;13725;51.170;4.442;2024-01-30T09:08:16;12.20;99.90
25923;DHT22;13725;51.170;4.442;2024-01-30T09:10:42;12.30;99.90
25923;DHT22;13725;51.170;4.442;2024-01-30T09:13:09;12.30;99.90
25923;DHT22;13725;51.170;4.442;2024-01-30T09:15:36;12.30;99.90
25923;DHT22;13725;51.170;4.442;2024-01-30T09:18:01;12.40;99.90
25923;DHT22;13725;51.170;4.442;2024-01-30T09:20:27;12.40;99.90
25923;DHT22;13725;51.170;4.442;2024-01-30T09:22:53;12.40;99.90
25923;DHT22;13725;51.170;4.442;2024-01-30T09:25:19;12.40;99.90
25923;DHT22;13725;51.170;4.442;2024-01-30T09:27:44;12.50;99.90
25923;DHT22;13725;51.170;4.442;2024-01-30T09:30:10;12.50;99.90
25923;DHT22;13725;51.170;4.442;2024-01-30T09:32:36;12.60;99.90
25923;DHT22;13725;51.170;4.442;2024-01-30T09:35:02;12.70;99.90
25923;DHT22;13725;51.170;4.442;2024-01-30T09:37:27;12.80;99.90
25923;DHT22;13725;51.170;4.442;2024-01-30T09:39:53;12.70;99.90
25923;DHT22;13725;51.170;4.442;2024-01-30T09:44:54;12.60;99.90
25923;DHT22;13725;51.170;4.442;2024-01-30T09:47:20;12.50;99.90
25923;DHT22;13725;51.170;4.442;2024-01-30T09:49:46;12.60;99.90
25923;DHT22;13725;51.170;4.442;2024-01-30T09:52:12;12.70;99.90
25923;DHT22;13725;51.170;4.442;2024-01-30T09:54:38;12.70;99.90
25923;DHT22;13725;51.170;4.442;2024-01-30T09:57:04;12.60;99.90
25923;DHT22;13725;51.170;4.442;2024-01-30T09:59:31;12.60;99.90
25923;DHT22;13725;51.170;4.442;2024-01-30T10:01:57;12.50;99.90
25923;DHT22;13725;51.170;4.442;2024-01-30T10:04:23;12.60;99.90
25923;DHT22;13725;51.170;4.442;2024-01-30T10:06:50;12.60;99.90
25923;DHT22;13725;51.170;4.442;2024-01-30T10:09:16;12.50;99.90
25923;DHT22;13725;51.170;4.442;2024-01-30T10:11:42;12.60;99.90
25923;DHT22;13725;51.170;4.442;2024-01-30T10:14:07;12.60;99.90
25923;DHT22;13725;51.170;4.442;2024-01-30T10:16:34;12.70;99.90
25923;DHT22;13725;51.170;4.442;2024-01-30T10:19:00;12.70;99.90
25923;DHT22;13725;51.170;4.442;2024-01-30T10:21:26;12.70;99.90
25923;DHT22;13725;51.170;4.442;2024-01-30T10:23:52;12.90;99.90
25923;DHT22;13725;51.170;4.442;2024-01-30T10:26:18;12.90;99.90
25923;DHT22;13725;51.170;4.442;2024-01-30T10:28:45;12.70;99.90
25923;DHT22;13725;51.170;4.442;2024-01-30T10:31:10;12.70;99.90
25923;DHT22;13725;51.170;4.442;2024-01-30T10:33:36;12.60;99.90
25923;DHT22;13725;51.170;4.442;2024-01-30T10:36:04;12.50;99.90
25923;DHT22;13725;51.170;4.442;2024-01-30T10:38:31;12.30;99.90
25923;DHT22;13725;51.170;4.442;2024-01-30T10:40:59;12.40;99.90
25923;DHT22;13725;51.170;4.442;2024-01-30T10:43:32;12.50;99.90
25923;DHT22;13725;51.170;4.442;2024-01-30T10:46:10;12.40;99.90
25923;DHT22;13725;51.170;4.442;2024-01-30T10:48:49;12.30;99.90
25923;DHT22;13725;51.170;4.442;2024-01-30T10:51:16;12.20;99.90
25923;DHT22;13725;51.170;4.442;2024-01-30T10:53:44;12.20;99.90
25923;DHT22;13725;51.170;4.442;2024-01-30T10:56:12;12.20;99.90
25923;DHT22;13725;51.170;4.442;2024-01-30T10:58:38;12.20;99.90
25923;DHT22;13725;51.170;4.442;2024-01-30T11:01:05;12.30;99.90
25923;DHT22;13725;51.170;4.442;2024-01-30T11:03:32;12.30;99.90
25923;DHT22;13725;51.170;4.442;2024-01-30T11:06:00;12.30;99.90
25923;DHT22;13725;51.170;4.442;2024-01-30T11:08:27;12.20;99.90
25923;DHT22;13725;51.170;4.442;2024-01-30T11:10:58;12.20;99.90
25923;DHT22;13725;51.170;4.442;2024-01-30T11:13:30;12.30;99.90
25923;DHT22;13725;51.170;4.442;2024-01-30T11:16:04;13.30;99.90
25923;DHT22;13725;51.170;4.442;2024-01-30T11:18:31;14.30;99.90
25923;DHT22;13725;51.170;4.442;2024-01-30T11:20:58;15.60;99.90
25923;DHT22;13725;51.170;4.442;2024-01-30T11:23:26;17.20;99.90
25923;DHT22;13725;51.170;4.442;2024-01-30T11:25:53;19.10;99.90
25923;DHT22;13725;51.170;4.442;2024-01-30T11:28:18;20.50;99.90
25923;DHT22;13725;51.170;4.442;2024-01-30T11:30:46;20.40;99.90
25923;DHT22;13725;51.170;4.442;2024-01-30T11:33:14;19.80;99.90
25923;DHT22;13725;51.170;4.442;2024-01-30T11:35:41;19.20;99.90
25923;DHT22;13725;51.170;4.442;2024-01-30T11:38:09;19.50;99.90
25923;DHT22;13725;51.170;4.442;2024-01-30T11:40:37;20.00;99.90
25923;DHT22;13725;51.170;4.442;2024-01-30T11:43:04;20.90;99.90
25923;DHT22;13725;51.170;4.442;2024-01-30T11:45:30;22.60;99.90
25923;DHT22;13725;51.170;4.442;2024-01-30T11:47:57;23.70;99.90
25923;DHT22;13725;51.170;4.442;2024-01-30T11:50:23;23.30;97.90
25923;DHT22;13725;51.170;4.442;2024-01-30T11:52:50;22.40;97.40
25923;DHT22;13725;51.170;4.442;2024-01-30T11:55:15;21.00;99.90
25923;DHT22;13725;51.170;4.442;2024-01-30T11:57:41;19.70;99.90
25923;DHT22;13725;51.170;4.442;2024-01-30T12:00:15;19.00;99.90
25923;DHT22;13725;51.170;4.442;2024-01-30T12:02:41;18.70;99.90
25923;DHT22;13725;51.170;4.442;2024-01-30T12:05:07;18.20;99.90
25923;DHT22;13725;51.170;4.442;2024-01-30T12:07:33;18.00;99.90
25923;DHT22;13725;51.170;4.442;2024-01-30T12:09:59;18.10;99.90
25923;DHT22;13725;51.170;4.442;2024-01-30T12:12:26;17.90;99.90
25923;DHT22;13725;51.170;4.442;2024-01-30T12:14:52;17.30;99.90
25923;DHT22;13725;51.170;4.442;2024-01-30T12:17:28;16.70;99.90
25923;DHT22;13725;51.170;4.442;2024-01-30T12:22:39;15.90;99.90
25923;DHT22;13725;51.170;4.442;2024-01-30T12:25:08;15.50;99.90
25923;DHT22;13725;51.170;4.442;2024-01-30T12:27:34;15.30;99.90
25923;DHT22;13725;51.170;4.442;2024-01-30T12:30:00;15.00;99.90
25923;DHT22;13725;51.170;4.442;2024-01-30T12:32:27;14.60;99.90
25923;DHT22;13725;51.170;4.442;2024-01-30T12:34:56;14.30;99.90
25923;DHT22;13725;51.170;4.442;2024-01-30T12:37:22;14.20;99.90
25923;DHT22;13725;51.170;4.442;2024-01-30T12:39:51;14.10;99.90
25923;DHT22;13725;51.170;4.442;2024-01-30T12:42:20;13.90;99.90
25923;DHT22;13725;51.170;4.442;2024-01-30T12:44:47;13.80;99.90
25923;DHT22;13725;51.170;4.442;2024-01-30T12:47:13;13.80;99.90
25923;DHT22;13725;51.170;4.442;2024-01-30T12:49:44;13.80;99.90
25923;DHT22;13725;51.170;4.442;2024-01-30T12:52:11;13.80;99.90
25923;DHT22;13725;51.170;4.442;2024-01-30T12:54:37;13.80;99.90
25923;DHT22;13725;51.170;4.442;2024-01-30T12:57:04;13.70;99.90
25923;DHT22;13725;51.170;4.442;2024-01-30T12:59:30;13.50;99.90
25923;DHT22;13725;51.170;4.442;2024-01-30T13:01:56;13.30;99.90
25923;DHT22;13725;51.170;4.442;2024-01-30T13:04:22;13.30;99.90
25923;DHT22;13725;51.170;4.442;2024-01-30T13:06:48;13.20;99.90
25923;DHT22;13725;51.170;4.442;2024-01-30T13:09:15;13.10;99.90
25923;DHT22;13725;51.170;4.442;2024-01-30T13:11:41;12.90;99.90
25923;DHT22;13725;51.170;4.442;2024-01-30T13:14:07;13.00;99.90
25923;DHT22;13725;51.170;4.442;2024-01-30T13:16:33;13.00;99.90
25923;DHT22;13725;51.170;4.442;2024-01-30T13:18:58;13.00;99.90
25923;DHT22;13725;51.170;4.442;2024-01-30T13:21:26;13.00;99.90
25923;DHT22;13725;51.170;4.442;2024-01-30T13:23:52;12.70;99.90
25923;DHT22;13725;51.170;4.442;2024-01-30T13:26:22;12.50;99.90
25923;DHT22;13725;51.170;4.442;2024-01-30T13:28:48;12.40;99.90
25923;DHT22;13725;51.170;4.442;2024-01-30T13:31:14;12.20;99.90
25923;DHT22;13725;51.170;4.442;2024-01-30T13:33:41;12.00;99.90
25923;DHT22;13725;51.170;4.442;2024-01-30T13:36:08;11.80;99.90
25923;DHT22;13725;51.170;4.442;2024-01-30T13:38:35;11.70;99.90
25923;DHT22;13725;51.170;4.442;2024-01-30T13:41:01;11.70;99.90
25923;DHT22;13725;51.170;4.442;2024-01-30T13:43:27;11.70;99.90
25923;DHT22;13725;51.170;4.442;2024-01-30T13:45:52;11.70;99.90
25923;DHT22;13725;51.170;4.442;2024-01-30T13:48:19;11.80;99.90
25923;DHT22;13725;51.170;4.442;2024-01-30T13:50:44;11.80;99.90
25923;DHT22;13725;51.170;4.442;2024-01-30T13:53:11;11.80;99.90
25923;DHT22;13725;51.170;4.442;2024-01-30T13:55:37;11.90;99.90
25923;DHT22;13725;51.170;4.442;2024-01-30T13:58:05;11.90;99.90
25923;DHT22;13725;51.170;4.442;2024-01-30T14:00:31;11.90;99.90
25923;DHT22;13725;51.170;4.442;2024-01-30T14:02:57;11.80;99.90
25923;DHT22;13725;51.170;4.442;2024-01-30T14:05:26;11.80;99.90
25923;DHT22;13725;51.170;4.442;2024-01-30T14:07:53;11.70;99.90
25923;DHT22;13725;51.170;4.442;2024-01-30T14:10:19;11.70;99.90
25923;DHT22;13725;51.170;4.442;2024-01-30T14:12:46;11.70;99.90
25923;DHT22;13725;51.170;4.442;2024-01-30T14:15:13;11.60;99.90
25923;DHT22;13725;51.170;4.442;2024-01-30T14:17:40;11.60;99.90
25923;DHT22;13725;51.170;4.442;2024-01-30T14:20:07;11.50;99.90
25923;DHT22;13725;51.170;4.442;2024-01-30T14:22:36;11.50;99.90
25923;DHT22;13725;51.170;4.442;2024-01-30T14:25:03;11.60;99.90
25923;DHT22;13725;51.170;4.442;2024-01-30T14:27:32;11.60;99.90
25923;DHT22;13725;51.170;4.442;2024-01-30T14:29:58;11.60;99.90
25923;DHT22;13725;51.170;4.442;2024-01-30T14:32:24;11.60;99.90
25923;DHT22;13725;51.170;4.442;2024-01-30T14:34:51;11.60;99.90
25923;DHT22;13725;51.170;4.442;2024-01-30T14:37:18;11.60;99.90
25923;DHT22;13725;51.170;4.442;2024-01-30T14:39:44;11.50;99.90
25923;DHT22;13725;51.170;4.442;2024-01-30T14:42:10;11.30;99.90
25923;DHT22;13725;51.170;4.442;2024-01-30T14:44:35;11.20;99.90
25923;DHT22;13725;51.170;4.442;2024-01-30T14:47:01;11.20;99.90
25923;DHT22;13725;51.170;4.442;2024-01-30T14:49:27;11.20;99.90
25923;DHT22;13725;51.170;4.442;2024-01-30T14:51:53;11.20;99.90
25923;DHT22;13725;51.170;4.442;2024-01-30T14:54:19;11.10;99.90
25923;DHT22;13725;51.170;4.442;2024-01-30T14:56:45;11.00;99.90
25923;DHT22;13725;51.170;4.442;2024-01-30T14:59:11;11.10;99.90
25923;DHT22;13725;51.170;4.442;2024-01-30T15:01:37;11.00;99.90
25923;DHT22;13725;51.170;4.442;2024-01-30T15:04:03;11.00;99.90
25923;DHT22;13725;51.170;4.442;2024-01-30T15:06:29;11.00;99.90
25923;DHT22;13725;51.170;4.442;2024-01-30T15:08:55;11.00;99.90
25923;DHT22;13725;51.170;4.442;2024-01-30T15:11:21;11.00;99.90
25923;DHT22;13725;51.170;4.442;2024-01-30T15:13:47;10.90;99.90
25923;DHT22;13725;51.170;4.442;2024-01-30T15:16:12;10.90;99.90
25923;DHT22;13725;51.170;4.442;2024-01-30T15:18:39;11.00;99.90
25923;DHT22;13725;51.170;4.442;2024-01-30T15:21:04;11.00;99.90
25923;DHT22;13725;51.170;4.442;2024-01-30T15:23:30;10.90;99.90
25923;DHT22;13725;51.170;4.442;2024-01-30T15:25:56;11.00;99.90
25923;DHT22;13725;51.170;4.442;2024-01-30T15:28:37;10.90;99.90
25923;DHT22;13725;51.170;4.442;2024-01-30T15:31:04;11.00;99.90